UNKL 100200Z VRB01MPS CAVOK 20/14 Q1010 R11/CLRD65 NOSIG RMK QFE732
QNH:(hPa/inHg/mmHg)1010 / 29.83 / 758
QFE:(hPa/inHg/mmHg)975 / 28.80 / 731
Temperature20
Dew Point14
Visibility> 10000
WeatherCAVOK
Cloud Cover
Transition Height1100 m./4600 ft.
Transition LevelFL70
SQUAWK